METAR Data
IDs: Format: Raw Decoded Include TAF

Data at: 2101 UTC 18 Sep 2018

KRYN 182045Z 32011KT 10SM CLR 36/12 A2988
KRYN 181945Z 29007KT 10SM CLR 35/12 A2991
KRYN 181845Z 32004KT 10SM CLR 34/12 A2993
KRYN 181745Z 32007KT 300-010 10SM CLR 33/13 A2995
KRYN 181645Z 26005KT 10SM CLR 32/15 A2997
KRYN 181546Z 00000KT 10SM CLR 29/16 A2997
KRYN 181450Z 00000KT 10SM CLR 27/16 A2997
KRYN 181345Z 00000KT 10SM CLR 24/14 A2996
KRYN 181245Z 00000KT 10SM CLR 23/14 A2995
KRYN 180245Z 31005KT 10SM CLR 34/11 A2985 RMK LAST
KRYN 180145Z 32008KT 10SM CLR 35/09 A2983
KRYN 180045Z 31010KT 10SM CLR 39/09 A2983
KRYN 172345Z 33011G15KT 10SM CLR 38/08 A2982
KRYN 172245Z 32011G15KT 10SM CLR 39/08 A2983
KRYN 172145Z 29007KT 10SM CLR 38/07 A2985
KRYN 172045Z 30010KT 10SM CLR 38/12 A2987
KRYN 171845Z 32006KT 10SM CLR 36/14 A2993
KRYN 171745Z 00000KT 10SM CLR 34/14 A2995
KRYN 171645Z 35003KT 10SM CLR 32/14 A2996
KRYN 171545Z 00000KT 10SM CLR 30/16 A2996
KRYN 171445Z 00000KT 10SM CLR 26/15 A2996
KRYN 171345Z 00000KT 10SM CLR 23/14 A2995
KRYN 171245Z 11004KT 10SM CLR 22/13 A2993